Capt. Pete — WDH7978 — position and weather

sailwx.info

Track history (hours):
 
Tides and Currents Weather Stations Pressure Air Temp Water Temp Dewpoint Dewpoint Depression Visibility Wind Speed Wind Dir Waves Ship Positions

Capt. Pete

Owner: Higman Barge Lines, Inc., Orange, TX. More information available from US FCC via Universal Licensing System and Coast Guard Vessel Documentation Center.

Last reported at 2018-May-23 09:00 UTC. Time now 2018-May-24 23:36 UTC.
Position N 32°40' W 091°08'.

Length 205 m; draft 2.4 m.

Type: . MMSI: 367653470.

Date/timePositionNaut miles runAvg speedWind from/ knotsBaromVisibWave heightAir tempDewpointWater temp
2018-May-23 09:00N 32°40' W 091°08'2 4.9
2018-May-23 08:30N 32°38' W 091°09'3 5.3
2018-May-23 08:01N 32°36' W 091°08'3 5.0
2018-May-23 07:30N 32°34' W 091°06'2 4.9
2018-May-23 07:00N 32°31' W 091°06'5 4.8
2018-May-23 06:00N 32°27' W 091°04'3 5.3
2018-May-23 05:30N 32°26' W 091°01'2 4.5
2018-May-23 05:00N 32°24' W 090°59'3 5.3
2018-May-23 04:31N 32°22' W 091°00'3 5.3
2018-May-23 04:00N 32°21' W 090°57'3 5.1
2018-May-23 03:31N 32°20' W 090°54'2 4.4
2018-May-23 03:00N 32°18' W 090°55'3 5.4
2018-May-23 02:30N 32°16' W 090°57'3 5.1
2018-May-23 02:00N 32°14' W 090°59'2 3.1
2018-May-23 01:30N 32°13' W 090°59'2 4.7
2018-May-23 01:00N 32°10' W 090°60'2 5.0
2018-May-23 00:31N 32°08' W 091°00'2 4.4
2018-May-23 00:00N 32°07' W 091°03'1 2.3
2018-May-22 23:30N 32°08' W 091°04'2 4.1
2018-May-22 23:00N 32°07' W 091°06'5 5.1
2018-May-22 22:07N 32°03' W 091°04'1 5.2
2018-May-22 22:00N 32°03' W 091°04'  
2018-May-18 11:49N 30°25' W 091°12'0 0.0
2018-May-18 11:13N 30°25' W 091°12'0 0.0
2018-May-18 10:32N 30°25' W 091°12'0 0.0
2018-May-18 10:15N 30°25' W 091°12'0 0.0
2018-May-18 10:00N 30°25' W 091°12'0 0.0
2018-May-18 09:30N 30°25' W 091°12'0 0.0
2018-May-18 09:00N 30°25' W 091°12'96 5.1
2018-May-17 14:10N 31°60' W 091°05'210.4
2018-May-17 14:00N 32°01' W 091°04'5 9.1
2018-May-17 13:27N 32°06' W 091°06'3 6.7
2018-May-17 13:00N 32°07' W 091°03'4 8.8
2018-May-17 12:30N 32°11' W 090°60'510.3
2018-May-17 12:00N 32°16' W 090°58'510.2
2018-May-17 11:30N 32°20' W 090°54'5 9.8
2018-May-17 11:00N 32°21' W 090°60'5 9.0
2018-May-17 10:30N 32°25' W 091°01'510.5
2018-May-17 10:00N 32°28' W 091°06'5 9.4
2018-May-17 09:30N 32°33' W 091°06'5 9.8
2018-May-17 09:00N 32°37' W 091°09'  
Track history (hours):
 
Tides and Currents Weather Stations Pressure Air Temp Water Temp Dewpoint Dewpoint Depression Visibility Wind Speed Wind Dir Waves Ship Positions

Capt. Pete

Owner: Higman Barge Lines, Inc., Orange, TX. More information available from US FCC via Universal Licensing System and Coast Guard Vessel Documentation Center.

Last reported at 2018-May-23 09:00 UTC. Time now 2018-May-24 23:36 UTC.
Position N 32°40' W 091°08'.

Length 205 m; draft 2.4 m.

Type: . MMSI: 367653470.

Date/timePositionNaut miles runAvg speedWind from/ knotsBaromVisibWave heightAir tempDewpointWater temp
2018-May-23 09:00N 32°40' W 091°08'2 4.9
2018-May-23 08:30N 32°38' W 091°09'3 5.3
2018-May-23 08:01N 32°36' W 091°08'3 5.0
2018-May-23 07:30N 32°34' W 091°06'2 4.9
2018-May-23 07:00N 32°31' W 091°06'5 4.8
2018-May-23 06:00N 32°27' W 091°04'3 5.3
2018-May-23 05:30N 32°26' W 091°01'2 4.5
2018-May-23 05:00N 32°24' W 090°59'3 5.3
2018-May-23 04:31N 32°22' W 091°00'3 5.3
2018-May-23 04:00N 32°21' W 090°57'3 5.1
2018-May-23 03:31N 32°20' W 090°54'2 4.4
2018-May-23 03:00N 32°18' W 090°55'3 5.4
2018-May-23 02:30N 32°16' W 090°57'3 5.1
2018-May-23 02:00N 32°14' W 090°59'2 3.1
2018-May-23 01:30N 32°13' W 090°59'2 4.7
2018-May-23 01:00N 32°10' W 090°60'2 5.0
2018-May-23 00:31N 32°08' W 091°00'2 4.4
2018-May-23 00:00N 32°07' W 091°03'1 2.3
2018-May-22 23:30N 32°08' W 091°04'2 4.1
2018-May-22 23:00N 32°07' W 091°06'5 5.1
2018-May-22 22:07N 32°03' W 091°04'1 5.2
2018-May-22 22:00N 32°03' W 091°04'  
2018-May-18 11:49N 30°25' W 091°12'0 0.0
2018-May-18 11:13N 30°25' W 091°12'0 0.0
2018-May-18 10:32N 30°25' W 091°12'0 0.0
2018-May-18 10:15N 30°25' W 091°12'0 0.0
2018-May-18 10:00N 30°25' W 091°12'0 0.0
2018-May-18 09:30N 30°25' W 091°12'0 0.0
2018-May-18 09:00N 30°25' W 091°12'96 5.1
2018-May-17 14:10N 31°60' W 091°05'210.4
2018-May-17 14:00N 32°01' W 091°04'5 9.1
2018-May-17 13:27N 32°06' W 091°06'3 6.7
2018-May-17 13:00N 32°07' W 091°03'4 8.8
2018-May-17 12:30N 32°11' W 090°60'510.3
2018-May-17 12:00N 32°16' W 090°58'510.2
2018-May-17 11:30N 32°20' W 090°54'5 9.8
2018-May-17 11:00N 32°21' W 090°60'5 9.0
2018-May-17 10:30N 32°25' W 091°01'510.5
2018-May-17 10:00N 32°28' W 091°06'5 9.4
2018-May-17 09:30N 32°33' W 091°06'5 9.8
2018-May-17 09:00N 32°37' W 091°09'  

Dump ship's entire track history